EHGG/GRQ METAR and TAF weather

Enter ICAO airport designator
Station Type Date Time Source
EHGG METAR 2018/01/22 19:55 UTC NOAA

EHGG 221955Z AUTO 26006KT 230V290 9000 FEW011 BKN014 BKN019 06/05 Q1012 TEMPO BKN010


Station Type Date Time Source
EHGG Decoded METAR 2018/01/22 19:55 UTC NOAA

Groningen Airport Eelde, Netherlands (EHGG) 53-08N 006-35E 4M
Jan 22, 2018 - 02:55 PM EST / 2018.01.22 1955 UTC
Wind: from the W (260 degrees) at 7 MPH (6 KT) (direction variable):0
Visibility: 5 mile(s):0
Sky conditions: mostly cloudy
Temperature: 42 F (6 C)
Dew Point: 41 F (5 C)
Relative Humidity: 93%
Pressure (altimeter): 29.88 in. Hg (1012 hPa)
ob: EHGG 221955Z AUTO 26006KT 230V290 9000 FEW011 BKN014 BKN019 06/05 Q1012 TEMPO BKN010
cycle: 20

Station Type Date Time Source
EHGG TAF 2018/01/22 18:27 UTC NOAA

TAF EHGG 221712Z 2218/2324 27007KT 9999 SCT012 OVC049 PROB30 2220/2302 7000 BKN012 PROB30 2302/2310 4000 BR BKN005
BECMG 2308/2310 20012KT
BECMG 2313/2315 20015G25KT 7000 RADZ BKN012
TEMPO 2315/2318 4000 DZRA BKN006
BECMG 2317/2320 23015G25KT 4000 BR -DZ BKN006
BECMG 2320/2323 2000 DZ BKN003


Example: see airport list